Time;durP1;ratioP1;P1;durP2;ratioP2;P2;SDS_P1;SDS_P2;PMS_P1;PMS_P2;Temp;Humidity;BMP_temperature;BMP_pressure;BME280_temperature;BME280_humidity;BME280_pressure;Samples;Min_cycle;Max_cycle;Signal;HPM_P1;HPM_P2
2021/05/25 00:01:24;;;;;;;1.40;1.30;;;;;;;9.61;100.00;101068.06;1842405;78;26160;-74
2021/05/25 00:03:53;;;;;;;1.63;1.30;;;;;;;9.48;100.00;101069.96;1842392;78;26254;-74
2021/05/25 00:06:23;;;;;;;2.30;1.30;;;;;;;9.43;100.00;101078.26;1842371;77;26372;-74
2021/05/25 00:08:53;;;;;;;2.77;1.20;;;;;;;9.33;100.00;101076.27;1842566;78;26211;-74
2021/05/25 00:11:23;;;;;;;4.30;1.67;;;;;;;9.35;100.00;101086.55;1842447;78;26646;-74
2021/05/25 00:13:53;;;;;;;2.77;1.53;;;;;;;9.32;100.00;101082.11;1842496;78;26203;-74
2021/05/25 00:16:23;;;;;;;1.30;1.20;;;;;;;9.31;100.00;101090.14;1842482;78;26694;-74
2021/05/25 00:18:53;;;;;;;1.67;1.40;;;;;;;9.26;100.00;101095.66;1842536;78;26315;-74
2021/05/25 00:21:23;;;;;;;2.70;1.13;;;;;;;9.23;100.00;101098.97;1842524;78;26278;-74
2021/05/25 00:23:53;;;;;;;1.63;1.53;;;;;;;9.16;100.00;101100.59;1842448;78;26674;-74
2021/05/25 00:26:22;;;;;;;3.10;1.23;;;;;;;9.18;100.00;101105.88;1842416;78;26208;-74
2021/05/25 00:28:52;;;;;;;2.30;1.27;;;;;;;9.15;100.00;101107.26;1842467;78;26520;-74
2021/05/25 00:31:22;;;;;;;2.40;1.27;;;;;;;9.09;100.00;101109.71;1842422;78;26622;-74
2021/05/25 00:33:52;;;;;;;1.60;1.30;;;;;;;9.05;100.00;101104.42;1842467;78;26156;-74
2021/05/25 00:36:24;;;;;;;2.47;1.30;;;;;;;9.10;100.00;101112.77;1842576;78;26160;-74
2021/05/25 00:38:54;;;;;;;2.03;1.20;;;;;;;9.07;100.00;101111.93;1842594;78;26626;-75
2021/05/25 00:41:23;;;;;;;3.97;1.30;;;;;;;9.03;100.00;101110.77;1842451;78;26281;-75
2021/05/25 00:43:54;;;;;;;2.03;1.20;;;;;;;9.05;100.00;101111.35;1842541;78;26302;-74
2021/05/25 00:46:24;;;;;;;3.50;1.40;;;;;;;9.00;100.00;101116.31;1842572;78;26235;-74
2021/05/25 00:48:54;;;;;;;1.77;1.07;;;;;;;8.95;100.00;101116.82;1842549;78;26611;-74
2021/05/25 00:51:24;;;;;;;1.57;1.20;;;;;;;9.05;100.00;101112.73;1842402;78;26168;-74
2021/05/25 00:53:53;;;;;;;1.37;1.10;;;;;;;9.02;100.00;101114.13;1842441;78;26721;-74
2021/05/25 00:56:24;;;;;;;3.03;1.10;;;;;;;9.01;100.00;101115.77;1842451;78;26269;-74
2021/05/25 00:58:55;;;;;;;2.87;1.07;;;;;;;8.89;100.00;101120.13;1842576;78;26243;-74
2021/05/25 01:01:25;;;;;;;2.30;1.20;;;;;;;8.90;100.00;101122.36;1842389;78;26180;-74
2021/05/25 01:03:55;;;;;;;1.40;1.30;;;;;;;8.91;100.00;101124.84;1842421;78;26283;-74
2021/05/25 01:06:25;;;;;;;2.13;1.30;;;;;;;8.89;100.00;101128.45;1842417;78;26172;-75
2021/05/25 01:08:57;;;;;;;2.07;1.07;;;;;;;8.82;100.00;101125.05;1842495;76;26303;-74
2021/05/25 01:11:27;;;;;;;3.30;1.30;;;;;;;8.81;100.00;101125.34;1842623;78;26238;-74
2021/05/25 01:13:58;;;;;;;2.50;1.17;;;;;;;8.80;100.00;101133.36;1842458;78;26157;-74
2021/05/25 01:16:29;;;;;;;3.53;1.60;;;;;;;8.84;100.00;101133.95;1842423;78;26227;-75
2021/05/25 01:18:59;;;;;;;2.33;1.27;;;;;;;8.86;100.00;101135.88;1842408;78;26160;-74
2021/05/25 01:21:29;;;;;;;3.60;1.50;;;;;;;8.88;100.00;101130.92;1842391;78;26191;-75
2021/05/25 01:23:59;;;;;;;2.47;1.00;;;;;;;8.83;100.00;101132.27;1842446;78;26172;-74
2021/05/25 01:26:28;;;;;;;1.63;1.43;;;;;;;8.81;100.00;101135.88;1842481;78;26181;-74
2021/05/25 01:28:58;;;;;;;3.10;1.07;;;;;;;8.86;100.00;101134.50;1842412;78;26603;-74
2021/05/25 01:31:28;;;;;;;2.53;1.50;;;;;;;8.86;100.00;101132.27;1842451;78;26168;-75
2021/05/25 01:33:58;;;;;;;2.90;1.50;;;;;;;8.81;100.00;101135.03;1842475;78;26619;-75
2021/05/25 01:36:28;;;;;;;4.67;1.30;;;;;;;8.87;100.00;101137.56;1842384;78;26172;-74
2021/05/25 01:38:58;;;;;;;2.20;1.00;;;;;;;8.85;100.00;101132.02;1842327;78;26623;-74
2021/05/25 01:41:28;;;;;;;2.20;1.20;;;;;;;8.89;100.00;101133.15;1842347;78;26172;-75
2021/05/25 01:43:58;;;;;;;3.20;1.47;;;;;;;8.89;100.00;101142.84;1842376;78;26152;-74
2021/05/25 01:46:27;;;;;;;5.00;1.77;;;;;;;8.89;100.00;101149.77;1842353;78;26670;-75
2021/05/25 01:48:57;;;;;;;2.57;1.60;;;;;;;8.80;100.00;101145.28;1842344;78;26223;-74
2021/05/25 01:51:27;;;;;;;3.67;1.40;;;;;;;8.79;100.00;101154.68;1842440;78;26147;-75
2021/05/25 01:53:57;;;;;;;3.07;1.17;;;;;;;8.81;100.00;101158.03;1842460;78;26161;-75
2021/05/25 01:56:26;;;;;;;3.27;1.33;;;;;;;8.81;100.00;101157.20;1842380;78;26171;-75
2021/05/25 01:58:56;;;;;;;4.97;1.43;;;;;;;8.74;100.00;101158.80;1842577;78;26168;-75
2021/05/25 02:01:26;;;;;;;1.43;1.30;;;;;;;8.70;100.00;101167.34;1842368;78;26639;-74
2021/05/25 02:03:56;;;;;;;3.57;1.47;;;;;;;8.73;100.00;101165.42;1842372;78;26285;-74
2021/05/25 02:06:26;;;;;;;3.60;1.60;;;;;;;8.68;100.00;101166.80;1842380;78;26607;-75
2021/05/25 02:08:57;;;;;;;3.67;1.63;;;;;;;8.68;100.00;101168.18;1842399;77;26216;-75
2021/05/25 02:11:27;;;;;;;2.53;1.47;;;;;;;8.68;100.00;101178.68;1842382;78;26168;-75
2021/05/25 02:13:57;;;;;;;2.57;1.40;;;;;;;8.67;100.00;101177.58;1842483;78;26184;-75
2021/05/25 02:16:27;;;;;;;1.77;1.20;;;;;;;8.72;100.00;101185.09;1842397;78;26250;-75
2021/05/25 02:18:56;;;;;;;3.20;1.30;;;;;;;8.73;100.00;101182.04;1842402;78;26175;-75
2021/05/25 02:21:26;;;;;;;2.93;1.50;;;;;;;8.71;100.00;101187.57;1842370;78;26185;-75
2021/05/25 02:23:56;;;;;;;2.87;1.30;;;;;;;8.68;100.00;101198.06;1842372;78;26176;-75
2021/05/25 02:26:26;;;;;;;4.20;1.50;;;;;;;8.73;100.00;101194.50;1842650;78;26168;-74
2021/05/25 02:28:56;;;;;;;4.50;1.50;;;;;;;8.69;100.00;101193.36;1842357;78;26169;-75
2021/05/25 02:31:25;;;;;;;3.00;1.50;;;;;;;8.67;100.00;101200.58;1842469;78;26242;-74
2021/05/25 02:33:55;;;;;;;3.50;1.60;;;;;;;8.67;100.00;101197.80;1842360;78;26164;-74
2021/05/25 02:36:25;;;;;;;2.60;1.37;;;;;;;8.70;100.00;101199.20;1842460;78;26172;-74
2021/05/25 02:38:55;;;;;;;4.53;1.50;;;;;;;8.63;100.00;101205.52;1842463;78;26165;-74
2021/05/25 02:41:25;;;;;;;2.07;1.40;;;;;;;8.74;100.00;101203.11;1842311;78;26651;-74
2021/05/25 02:43:55;;;;;;;4.63;1.57;;;;;;;8.82;100.00;101208.70;1842438;78;26180;-74
2021/05/25 02:46:24;;;;;;;4.27;2.33;;;;;;;8.84;100.00;101207.35;1842426;78;26172;-74
2021/05/25 02:48:54;;;;;;;3.13;1.47;;;;;;;8.88;100.00;101197.95;1842383;78;26168;-74
2021/05/25 02:51:24;;;;;;;2.90;1.43;;;;;;;8.89;100.00;101197.70;1842365;78;26208;-74
2021/05/25 02:53:54;;;;;;;2.50;1.20;;;;;;;8.89;100.00;101200.47;1842461;78;26196;-74
2021/05/25 02:56:23;;;;;;;3.63;1.50;;;;;;;8.88;100.00;101204.34;1842418;78;26254;-74
2021/05/25 02:58:54;;;;;;;2.90;1.13;;;;;;;8.93;100.00;101204.92;1842345;78;26733;-74
2021/05/25 03:01:24;;;;;;;3.17;1.60;;;;;;;8.97;100.00;101208.83;1842364;78;26615;-74
2021/05/25 03:03:54;;;;;;;2.03;1.37;;;;;;;9.03;100.00;101197.50;1842267;78;26204;-74
2021/05/25 03:06:24;;;;;;;2.90;1.40;;;;;;;8.97;100.00;101207.45;1842383;78;26203;-74
2021/05/25 03:08:54;;;;;;;2.33;1.40;;;;;;;8.95;100.00;101202.70;1842238;75;26318;-74
2021/05/25 03:11:24;;;;;;;2.47;1.53;;;;;;;8.93;100.00;101208.53;1842332;78;26197;-74
2021/05/25 03:13:53;;;;;;;4.80;1.57;;;;;;;8.96;100.00;101208.00;1842334;78;26200;-74
2021/05/25 03:16:23;;;;;;;4.23;1.63;;;;;;;9.02;100.00;101207.49;1842319;78;26200;-75
2021/05/25 03:18:53;;;;;;;3.63;1.70;;;;;;;8.97;100.00;101194.44;1842372;78;26623;-74
2021/05/25 03:21:23;;;;;;;4.40;1.50;;;;;;;8.92;100.00;101209.63;1842382;78;26253;-74
2021/05/25 03:23:54;;;;;;;3.90;1.10;;;;;;;8.95;100.00;101206.31;1842332;78;26187;-75
2021/05/25 03:26:24;;;;;;;1.80;1.17;;;;;;;8.95;100.00;101208.25;1842496;78;26296;-74
2021/05/25 03:28:53;;;;;;;4.03;1.30;;;;;;;8.98;100.00;101203.59;1842318;78;26317;-75
2021/05/25 03:31:23;;;;;;;3.70;1.47;;;;;;;9.00;100.00;101204.97;1842296;78;26721;-74
2021/05/25 03:33:53;;;;;;;3.83;1.40;;;;;;;9.01;100.00;101207.20;1842393;78;26173;-75
2021/05/25 03:36:23;;;;;;;2.43;1.27;;;;;;;8.99;100.00;101214.92;1842456;78;26671;-75
2021/05/25 03:38:53;;;;;;;4.10;1.20;;;;;;;9.02;100.00;101211.09;1842326;78;26176;-75
2021/05/25 03:41:22;;;;;;;5.07;1.70;;;;;;;9.07;100.00;101213.88;1842290;78;26168;-75
2021/05/25 03:43:52;;;;;;;4.50;1.53;;;;;;;9.07;100.00;101217.23;1842321;78;26247;-75
2021/05/25 03:46:39;;;;;;;3.37;1.20;;;;;;;9.03;100.00;101216.91;1849209;77;33182;-75
2021/05/25 03:49:09;;;;;;;4.33;1.63;;;;;;;9.02;100.00;101215.80;1810481;79;26178;-75
2021/05/25 03:51:39;;;;;;;2.97;1.30;;;;;;;9.00;100.00;101222.98;1849723;77;26785;-74
2021/05/25 03:54:10;;;;;;;3.27;1.30;;;;;;;8.98;100.00;101214.12;1810118;79;26264;-75
2021/05/25 03:56:51;;;;;;;2.90;1.40;;;;;;;9.03;100.00;101224.38;1849842;77;26627;-74
2021/05/25 03:59:19;;;;;;;2.77;1.47;;;;;;;8.98;100.00;101229.91;1810302;79;26280;-74
2021/05/25 04:01:49;;;;;;;4.53;1.50;;;;;;;8.94;100.00;101224.61;1837963;77;930710;-74
2021/05/25 04:04:19;;;;;;;4.87;1.47;;;;;;;8.97;100.00;101224.91;1850027;77;26296;-74
2021/05/25 04:06:49;;;;;;;3.00;1.40;;;;;;;9.00;100.00;101227.14;1849910;77;26187;-74
2021/05/25 04:09:19;;;;;;;4.20;1.47;;;;;;;8.98;100.00;101225.20;1849876;76;26223;-74
2021/05/25 04:11:49;;;;;;;1.93;1.10;;;;;;;9.01;100.00;101227.43;1849936;77;26183;-74
2021/05/25 04:14:19;;;;;;;3.40;1.10;;;;;;;8.96;100.00;101227.94;1850023;77;26642;-75
2021/05/25 04:16:49;;;;;;;2.47;1.50;;;;;;;8.96;100.00;101226.00;1849786;77;26185;-74
2021/05/25 04:19:19;;;;;;;3.23;1.20;;;;;;;8.95;100.00;101232.64;1842458;77;26206;-75
2021/05/25 04:21:49;;;;;;;3.00;1.43;;;;;;;9.02;100.00;101231.05;1842403;77;26679;-75
2021/05/25 04:24:18;;;;;;;2.57;1.40;;;;;;;8.98;100.00;101229.91;1842529;77;26203;-74
2021/05/25 04:26:48;;;;;;;3.60;1.57;;;;;;;9.02;100.00;101241.58;1842525;77;26228;-74
2021/05/25 04:29:18;;;;;;;3.77;1.20;;;;;;;9.04;100.00;101244.91;1842495;78;26273;-74
2021/05/25 04:31:48;;;;;;;6.53;1.70;;;;;;;9.06;100.00;101244.65;1842534;78;26269;-74
2021/05/25 04:34:18;;;;;;;6.10;1.20;;;;;;;9.12;100.00;101267.13;1842515;77;26302;-74
2021/05/25 04:36:47;;;;;;;3.43;1.27;;;;;;;9.16;100.00;101264.68;1842419;77;26298;-75
2021/05/25 04:39:17;;;;;;;4.60;1.63;;;;;;;9.18;100.00;101273.55;1842501;77;26655;-74
2021/05/25 04:41:47;;;;;;;2.87;1.53;;;;;;;9.23;100.00;101268.89;1842376;77;26299;-74
2021/05/25 04:44:17;;;;;;;4.30;1.50;;;;;;;9.29;100.00;101278.05;1842393;78;26666;-74
2021/05/25 04:46:47;;;;;;;2.93;1.40;;;;;;;9.26;100.00;101278.59;1842366;78;26216;-74
2021/05/25 04:49:17;;;;;;;3.57;1.30;;;;;;;9.21;100.00;101273.01;1842465;77;26214;-74
2021/05/25 04:51:46;;;;;;;2.47;1.27;;;;;;;9.24;100.00;101276.66;1842513;77;26216;-74
2021/05/25 04:54:16;;;;;;;2.83;1.43;;;;;;;9.25;100.00;101270.83;1842475;78;26208;-74
2021/05/25 04:56:46;;;;;;;3.53;1.50;;;;;;;9.28;100.00;101273.09;1842469;78;26217;-74
2021/05/25 04:59:16;;;;;;;3.57;1.63;;;;;;;9.31;100.00;101281.41;1842409;77;26343;-74
2021/05/25 05:01:46;;;;;;;3.53;1.50;;;;;;;9.34;100.00;101287.80;1842367;77;26289;-74
2021/05/25 05:04:15;;;;;;;5.53;1.80;;;;;;;9.33;100.00;101293.89;1842390;77;26306;-74
2021/05/25 05:06:45;;;;;;;3.17;1.47;;;;;;;9.29;100.00;101291.37;1842407;78;26247;-74
2021/05/25 05:09:15;;;;;;;3.67;1.57;;;;;;;9.24;100.00;101290.52;1842492;78;26255;-74
2021/05/25 05:11:45;;;;;;;2.03;1.20;;;;;;;9.22;100.00;101300.47;1842510;75;26415;-74
2021/05/25 05:14:15;;;;;;;2.33;1.13;;;;;;;9.26;100.00;101296.61;1842376;78;26231;-74
2021/05/25 05:16:44;;;;;;;3.13;1.30;;;;;;;9.21;100.00;101296.02;1842525;77;26251;-74
2021/05/25 05:19:14;;;;;;;2.80;1.43;;;;;;;9.21;100.00;101303.50;1842458;77;26410;-74
2021/05/25 05:21:44;;;;;;;4.10;1.50;;;;;;;9.18;100.00;101302.11;1842504;77;26773;-74
2021/05/25 05:24:14;;;;;;;5.73;1.30;;;;;;;9.16;100.00;101307.64;1842429;78;26290;-74
2021/05/25 05:26:44;;;;;;;5.23;1.80;;;;;;;9.19;100.00;101300.17;1842479;77;26247;-74
2021/05/25 05:29:14;;;;;;;3.00;1.47;;;;;;;9.27;100.00;101302.45;1842461;77;26274;-75
2021/05/25 05:31:45;;;;;;;3.07;1.40;;;;;;;9.36;100.00;101300.86;1842431;77;26711;-74
2021/05/25 05:34:15;;;;;;;2.10;1.60;;;;;;;9.47;100.00;101302.04;1842408;77;26615;-74
2021/05/25 05:36:45;;;;;;;4.03;1.47;;;;;;;9.52;100.00;101302.63;1842504;77;26259;-74
2021/05/25 05:39:15;;;;;;;5.77;1.77;;;;;;;9.58;100.00;101302.95;1842423;77;26675;-74
2021/05/25 05:41:45;;;;;;;2.70;1.37;;;;;;;9.56;100.00;101303.22;1842430;77;26255;-75
2021/05/25 05:44:14;;;;;;;3.63;1.50;;;;;;;9.58;100.00;101305.16;1842448;78;26267;-75
2021/05/25 05:46:45;;;;;;;5.40;1.57;;;;;;;9.67;100.00;101305.48;1842412;77;26290;-74
2021/05/25 05:49:15;;;;;;;3.20;1.40;;;;;;;9.66;100.00;101309.94;1842470;77;26718;-74
2021/05/25 05:51:44;;;;;;;3.13;1.40;;;;;;;9.73;100.00;101309.13;1842415;77;26244;-74
2021/05/25 05:54:16;;;;;;;4.17;1.97;;;;;;;9.73;100.00;101322.45;1842497;78;26263;-75
2021/05/25 05:56:48;;;;;;;5.63;1.50;;;;;;;9.75;100.00;101321.65;1842474;78;26296;-74
2021/05/25 05:59:18;;;;;;;4.10;1.53;;;;;;;9.76;100.00;101316.91;1842387;78;26639;-74
2021/05/25 06:01:48;;;;;;;10.87;1.67;;;;;;;9.82;100.00;101326.40;1842447;77;26295;-73
2021/05/25 06:04:18;;;;;;;5.00;1.57;;;;;;;9.88;100.00;101326.69;1842444;77;26736;-73
2021/05/25 06:06:47;;;;;;;4.67;1.70;;;;;;;9.89;100.00;101322.81;1842461;78;26278;-74
2021/05/25 06:09:17;;;;;;;4.37;1.60;;;;;;;9.91;100.00;101325.34;1842469;77;26750;-73
2021/05/25 06:11:52;;;;;;;3.70;1.30;;;;;;;9.95;100.00;101325.92;1842270;75;26799;-74
2021/05/25 06:14:19;;;;;;;3.07;1.50;;;;;;;9.94;100.00;101330.34;1841334;78;26207;-74
2021/05/25 06:16:48;;;;;;;2.80;1.70;;;;;;;9.95;100.00;101325.92;1842424;77;26215;-74
2021/05/25 06:19:18;;;;;;;5.60;1.73;;;;;;;9.97;100.00;101328.41;1842352;77;26667;-75
2021/05/25 06:21:48;;;;;;;8.40;1.90;;;;;;;9.94;100.00;101330.34;1842481;78;26286;-73
2021/05/25 06:24:18;;;;;;;3.10;1.80;;;;;;;9.97;100.00;101329.79;1842346;78;26298;-73
2021/05/25 06:26:48;;;;;;;4.23;1.40;;;;;;;9.98;100.00;101332.31;1842407;77;26196;-73
2021/05/25 06:29:18;;;;;;;4.30;1.57;;;;;;;10.03;100.00;101341.22;1842539;77;26220;-74
2021/05/25 06:31:47;;;;;;;4.53;1.60;;;;;;;10.08;100.00;101337.63;1842368;78;26282;-74
2021/05/25 06:34:17;;;;;;;5.10;1.83;;;;;;;10.15;100.00;101344.63;1842637;77;26223;-73
2021/05/25 06:36:47;;;;;;;6.70;1.97;;;;;;;10.23;100.00;101348.83;1842599;77;26679;-74
2021/05/25 06:39:17;;;;;;;4.27;1.47;;;;;;;10.29;100.00;101356.09;1842354;77;26335;-74
2021/05/25 06:41:47;;;;;;;3.83;1.60;;;;;;;10.41;100.00;101360.85;1842450;78;26297;-73
2021/05/25 06:44:16;;;;;;;5.60;1.90;;;;;;;10.53;100.00;101355.05;1842340;77;26293;-73
2021/05/25 06:46:46;;;;;;;8.17;2.10;;;;;;;10.58;100.00;101359.24;1842527;77;26290;-73
2021/05/25 06:49:16;;;;;;;4.80;1.77;;;;;;;10.60;100.00;101356.48;1842444;77;26310;-73
2021/05/25 06:51:46;;;;;;;7.73;2.33;;;;;;;10.72;100.00;101364.57;1842357;77;26678;-73
2021/05/25 06:54:16;;;;;;;4.07;1.80;;;;;;;10.79;100.00;101370.14;1842445;77;26208;-73
2021/05/25 06:56:46;;;;;;;5.83;1.93;;;;;;;10.86;100.00;101367.95;1842441;77;26657;-73
2021/05/25 06:59:16;;;;;;;5.33;2.20;;;;;;;10.88;100.00;101368.50;1842364;77;26204;-74
2021/05/25 07:01:46;;;;;;;8.37;2.67;;;;;;;11.06;100.00;101374.65;1842327;77;26278;-74
2021/05/25 07:04:17;;;;;;;4.87;2.43;;;;;;;11.07;100.00;101373.55;1842288;78;26239;-74
2021/05/25 07:06:47;;;;;;;7.57;2.20;;;;;;;10.99;100.00;101368.53;1842333;77;26290;-74
2021/05/25 07:09:17;;;;;;;4.73;2.10;;;;;;;11.11;100.00;101367.71;1842317;77;26295;-75
2021/05/25 07:11:47;;;;;;;5.03;1.87;;;;;;;11.06;100.00;101364.37;1843760;75;27183;-74
2021/05/25 07:14:16;;;;;;;4.03;1.90;;;;;;;11.22;100.00;101371.61;1853579;77;26725;-74
2021/05/25 07:16:46;;;;;;;4.53;1.90;;;;;;;11.23;100.00;101378.01;1853522;77;26270;-75
2021/05/25 07:19:16;;;;;;;6.53;2.20;;;;;;;11.26;100.00;101375.50;1853578;77;26191;-74
2021/05/25 07:21:46;;;;;;;2.70;2.03;;;;;;;11.37;100.00;101371.63;1853551;77;26220;-74
2021/05/25 07:24:16;;;;;;;3.27;1.70;;;;;;;11.39;100.00;101377.73;1853627;77;26221;-74
2021/05/25 07:26:47;;;;;;;4.83;1.80;;;;;;;11.54;100.00;101374.12;1853803;77;26294;-74
2021/05/25 07:29:17;;;;;;;5.83;2.10;;;;;;;11.64;100.00;101378.28;1853614;77;26223;-74
2021/05/25 07:31:47;;;;;;;6.07;1.80;;;;;;;11.74;100.00;101380.26;1853513;77;26219;-75
2021/05/25 07:34:18;;;;;;;7.17;1.90;;;;;;;11.74;100.00;101383.04;1853675;77;26203;-74
2021/05/25 07:36:48;;;;;;;4.27;1.67;;;;;;;11.77;100.00;101380.52;1853527;77;26284;-74
2021/05/25 07:39:18;;;;;;;2.77;1.40;;;;;;;11.80;100.00;101384.16;1853886;77;26223;-74
2021/05/25 07:41:48;;;;;;;4.80;1.83;;;;;;;11.79;100.00;101380.25;1853623;77;26302;-74
2021/05/25 07:44:18;;;;;;;5.83;1.77;;;;;;;11.76;100.00;101380.27;1853654;77;26305;-73
2021/05/25 07:46:48;;;;;;;3.33;1.40;;;;;;;11.78;100.00;101394.73;1853701;77;26227;-74
2021/05/25 07:49:18;;;;;;;4.30;1.50;;;;;;;11.81;100.00;101395.55;1853663;77;26228;-74
2021/05/25 07:51:48;;;;;;;5.33;1.73;;;;;;;11.85;100.00;101395.27;1853725;77;26650;-74
2021/05/25 07:54:19;;;;;;;2.87;1.70;;;;;;;11.88;100.00;101398.06;1853642;77;26220;-74
2021/05/25 07:56:49;;;;;;;4.90;1.90;;;;;;;11.86;100.00;101392.77;1853640;77;26203;-74
2021/05/25 07:59:19;;;;;;;6.33;2.40;;;;;;;11.94;100.00;101391.35;1853730;77;26216;-74
2021/05/25 08:01:48;;;;;;;7.90;2.30;;;;;;;11.92;100.00;101399.72;1853626;77;26211;-74
2021/05/25 08:04:18;;;;;;;4.33;1.47;;;;;;;12.04;100.00;101398.86;1853589;77;26289;-74
2021/05/25 08:06:48;;;;;;;5.37;1.63;;;;;;;12.09;100.00;101398.86;1853633;77;26212;-74
2021/05/25 08:09:18;;;;;;;4.73;1.73;;;;;;;12.21;100.00;101404.95;1853625;77;26269;-74
2021/05/25 08:11:47;;;;;;;3.53;1.60;;;;;;;12.27;100.00;101401.88;1853658;74;26288;-74
2021/05/25 08:14:17;;;;;;;4.50;1.63;;;;;;;12.46;100.00;101412.38;1853803;76;26220;-73
2021/05/25 08:16:47;;;;;;;5.00;1.83;;;;;;;12.40;100.00;101411.59;1853694;77;26721;-74
2021/05/25 08:19:25;;;;;;;5.03;2.17;;;;;;;12.54;100.00;101418.20;1853697;77;26290;-74
2021/05/25 08:21:48;;;;;;;3.80;1.97;;;;;;;12.56;100.00;101415.14;1851780;77;26266;-73
2021/05/25 08:24:18;;;;;;;5.47;2.00;;;;;;;12.61;100.00;101421.54;1853728;77;26223;-74
2021/05/25 08:26:48;;;;;;;4.47;1.50;;;;;;;12.68;100.00;101426.80;1853674;77;26209;-74
2021/05/25 08:29:18;;;;;;;5.40;1.80;;;;;;;12.74;100.00;101429.28;1853944;77;26671;-74
2021/05/25 08:31:48;;;;;;;3.50;1.73;;;;;;;12.81;100.00;101432.30;1853664;77;26211;-74
2021/05/25 08:34:18;;;;;;;4.50;1.90;;;;;;;12.91;100.00;101428.09;1853868;77;26714;-74
2021/05/25 08:36:48;;;;;;;4.10;1.80;;;;;;;12.96;100.00;101437.27;1853792;77;26242;-73
2021/05/25 08:39:18;;;;;;;6.90;1.97;;;;;;;12.90;100.00;101431.98;1853681;77;26196;-73
2021/05/25 08:41:48;;;;;;;3.53;1.67;;;;;;;12.93;100.00;101429.45;1853826;77;26273;-73
2021/05/25 08:44:17;;;;;;;4.17;1.60;;;;;;;12.92;100.00;101431.16;1853718;77;26211;-73
2021/05/25 08:46:48;;;;;;;2.60;1.20;;;;;;;13.01;100.00;101441.95;1853732;77;26219;-73
2021/05/25 08:49:19;;;;;;;5.67;1.77;;;;;;;12.99;100.00;101433.90;1853722;77;26366;-74
2021/05/25 08:51:49;;;;;;;4.93;1.57;;;;;;;13.06;100.00;101437.19;1853652;77;26200;-74
2021/05/25 08:54:20;;;;;;;3.13;1.30;;;;;;;13.11;100.00;101444.73;1853595;77;26215;-73
2021/05/25 08:56:50;;;;;;;3.67;1.43;;;;;;;13.11;100.00;101441.95;1853586;77;26278;-73
2021/05/25 08:59:20;;;;;;;5.20;1.40;;;;;;;13.12;100.00;101447.25;1853631;77;26279;-73
2021/05/25 09:01:50;;;;;;;4.77;1.20;;;;;;;13.29;100.00;101444.07;1853621;77;26720;-73
2021/05/25 09:04:20;;;;;;;4.33;1.40;;;;;;;13.34;100.00;101433.44;1853707;77;26289;-73
2021/05/25 09:06:51;;;;;;;4.50;1.50;;;;;;;13.44;100.00;101436.14;1853649;77;26353;-73
2021/05/25 09:09:21;;;;;;;3.03;1.10;;;;;;;13.55;100.00;101437.75;1853838;77;26281;-73
2021/05/25 09:11:57;;;;;;;2.70;1.40;;;;;;;13.64;100.00;101436.01;1853639;77;26644;-73
2021/05/25 09:14:28;;;;;;;4.70;1.50;;;;;;;13.48;100.00;101427.45;1851308;76;26321;-74
2021/05/25 09:17:18;;;;;;;3.50;1.17;;;;;;;13.24;100.00;101437.13;1850739;77;26314;-73
2021/05/25 09:19:50;;;;;;;3.33;1.60;;;;;;;13.03;100.00;101434.16;1850806;77;26223;-73
2021/05/25 09:22:32;;;;;;;6.17;1.37;;;;;;;12.95;100.00;101446.75;1850547;77;26732;-73
2021/05/25 09:25:07;;;;;;;3.77;1.30;;;;;;;12.87;100.00;101449.30;1850454;77;26284;-74
2021/05/25 09:27:39;;;;;;;4.10;1.43;;;;;;;12.85;100.00;101441.77;1850495;77;26239;-74
2021/05/25 09:30:22;;;;;;;4.93;1.50;;;;;;;12.79;100.00;101448.75;1850416;77;26247;-73
2021/05/25 09:32:58;;;;;;;2.40;1.77;;;;;;;12.79;100.00;101447.95;1850203;77;26290;-73
2021/05/25 09:35:30;;;;;;;3.20;1.30;;;;;;;12.75;100.00;101449.61;1850428;77;26209;-73
2021/05/25 09:38:02;;;;;;;4.57;1.50;;;;;;;12.76;100.00;101452.67;1850506;77;26348;-73
2021/05/25 09:40:33;;;;;;;3.43;1.50;;;;;;;12.86;100.00;101453.20;1850195;76;26281;-73
2021/05/25 09:45:32;;;;;;;3.30;1.33;;;;;;;13.20;100.00;101452.22;1812719;77;26356;-75
2021/05/25 09:48:05;;;;;;;4.73;1.97;;;;;;;13.20;100.00;101456.95;1811171;79;26702;-75
2021/05/25 09:50:37;;;;;;;3.27;1.50;;;;;;;13.26;100.00;101452.19;1810884;79;26365;-75
2021/05/25 09:53:11;;;;;;;3.57;1.30;;;;;;;13.15;100.00;101448.06;1811463;79;26693;-75
2021/05/25 09:55:53;;;;;;;5.90;1.83;;;;;;;13.07;100.00;101453.38;1810635;79;26207;-75
2021/05/25 09:58:25;;;;;;;2.87;1.53;;;;;;;12.98;100.00;101450.91;1812020;79;26385;-76
2021/05/25 10:00:56;;;;;;;3.03;1.60;;;;;;;12.98;100.00;101460.67;1811319;79;26223;-75
2021/05/25 10:03:27;;;;;;;4.53;1.60;;;;;;;13.04;100.00;101463.16;1810137;79;26287;-75
2021/05/25 10:06:00;;;;;;;5.60;2.10;;;;;;;13.13;100.00;101461.47;1810857;79;26914;-76
2021/05/25 10:08:31;;;;;;;3.03;1.90;;;;;;;13.30;100.00;101455.52;1811107;79;26230;-76
2021/05/25 10:11:01;;;;;;;6.37;1.90;;;;;;;13.65;100.00;101452.45;1811167;79;26298;-75
2021/05/25 10:13:31;;;;;;;5.37;1.53;;;;;;;13.85;100.00;101450.07;1811287;79;26652;-75
2021/05/25 10:16:01;;;;;;;1.43;1.17;;;;;;;13.92;100.00;101453.34;1811371;79;26764;-74
2021/05/25 10:18:48;;;;;;;4.60;1.63;;;;;;;13.80;100.00;101457.64;1811104;79;26796;-75
2021/05/25 10:21:10;;;;;;;6.97;1.77;;;;;;;13.48;100.00;101465.13;1808547;79;26352;-74
2021/05/25 10:23:42;;;;;;;5.17;1.70;;;;;;;13.34;100.00;101469.16;1810922;79;26752;-74
2021/05/25 10:26:18;;;;;;;3.33;1.87;;;;;;;13.25;100.00;101466.70;1811026;79;26321;-75
2021/05/25 10:28:50;;;;;;;3.43;1.80;;;;;;;13.10;100.00;101476.50;1811311;79;26263;-74
2021/05/25 10:31:32;;;;;;;5.07;1.77;;;;;;;13.09;100.00;101477.05;1811291;79;26719;-75
2021/05/25 10:34:20;;;;;;;4.13;1.90;;;;;;;13.10;100.00;101472.31;1811478;79;26382;-76
2021/05/25 10:36:53;;;;;;;4.97;2.17;;;;;;;13.31;100.00;101478.64;1810825;79;26296;-76
2021/05/25 10:39:39;;;;;;;3.20;1.33;;;;;;;13.51;100.00;101481.33;1810679;79;26267;-76
2021/05/25 10:42:33;;;;;;;3.17;1.60;;;;;;;13.62;100.00;101479.56;1810994;79;26749;-76
2021/05/25 10:45:15;;;;;;;3.37;1.83;;;;;;;13.76;100.00;101468.57;1810952;77;26369;-76
2021/05/25 10:48:02;;;;;;;3.83;1.53;;;;;;;14.04;100.00;101473.91;1810772;79;26271;-75
2021/05/25 10:50:34;;;;;;;5.00;1.90;;;;;;;14.16;100.00;101476.33;1811582;79;26219;-76
2021/05/25 10:53:27;;;;;;;2.77;1.50;;;;;;;14.28;100.00;101474.80;1811366;79;26327;-76
2021/05/25 10:55:56;;;;;;;3.90;1.97;;;;;;;14.33;100.00;101480.91;1811272;79;26299;-76
2021/05/25 10:58:32;;;;;;;4.97;1.53;;;;;;;14.46;100.00;101471.27;1811649;79;26650;-76
2021/05/25 11:01:07;;;;;;;4.40;1.77;;;;;;;14.64;100.00;101471.64;1811636;79;26312;-76
2021/05/25 11:03:38;;;;;;;5.53;1.50;;;;;;;14.74;100.00;101472.36;1811101;79;26293;-76
2021/05/25 11:06:08;;;;;;;3.63;1.70;;;;;;;14.72;100.00;101469.02;1811077;79;26249;-76
2021/05/25 11:08:39;;;;;;;5.00;1.50;;;;;;;14.51;100.00;101475.41;1811456;79;26394;-76
2021/05/25 11:11:29;;;;;;;3.60;1.17;;;;;;;14.32;100.00;101473.65;1811249;79;26223;-76
2021/05/25 11:13:59;;;;;;;2.77;0.97;;;;;;;14.30;100.00;101473.09;1811524;79;26266;-75
2021/05/25 11:16:35;;;;;;;3.53;1.50;;;;;;;14.28;100.00;101476.20;1811152;79;26256;-75
2021/05/25 11:19:30;;;;;;;4.77;1.53;;;;;;;14.10;100.00;101477.77;1810714;79;26263;-75
2021/05/25 11:25:05;;;;;;;3.87;1.37;;;;;;;14.10;100.00;101483.92;1795051;79;26669;-76
2021/05/25 11:27:43;;;;;;;5.50;1.60;;;;;;;14.07;100.00;101493.73;1811452;79;26238;-76
2021/05/25 11:30:25;;;;;;;2.83;1.50;;;;;;;14.12;100.00;101492.82;1811200;79;26222;-76
2021/05/25 11:32:56;;;;;;;6.67;1.70;;;;;;;14.24;100.00;101496.65;1811993;79;26235;-76
2021/05/25 11:35:28;;;;;;;5.13;1.90;;;;;;;14.37;100.00;101495.99;1811020;79;26694;-76
2021/05/25 11:38:00;;;;;;;4.67;1.33;;;;;;;14.57;100.00;101491.02;1811124;79;26776;-76
2021/05/25 11:40:32;;;;;;;1.43;1.20;;;;;;;14.79;100.00;101489.09;1810859;79;26238;-76
2021/05/25 11:43:02;;;;;;;3.37;1.20;;;;;;;14.77;100.00;101489.94;1810109;79;26329;-76
2021/05/25 11:45:33;;;;;;;4.03;1.60;;;;;;;14.76;100.00;101482.67;1804895;78;26287;-76